sensor_id;sensor_type;location;lat;lon;timestamp;P1;durP1;ratioP1;P2;durP2;ratioP2
74309;SDS011;62722;51.142;17.052;2023-02-17T00:02:10;36.88;;;15.55;;
74309;SDS011;62722;51.142;17.052;2023-02-17T00:04:38;36.67;;;15.48;;
74309;SDS011;62722;51.142;17.052;2023-02-17T00:07:05;31.95;;;14.18;;
74309;SDS011;62722;51.142;17.052;2023-02-17T00:09:35;33.72;;;13.93;;
74309;SDS011;62722;51.142;17.052;2023-02-17T00:12:03;37.83;;;14.60;;
74309;SDS011;62722;51.142;17.052;2023-02-17T00:14:32;36.05;;;13.65;;
74309;SDS011;62722;51.142;17.052;2023-02-17T00:16:59;35.78;;;14.57;;
74309;SDS011;62722;51.142;17.052;2023-02-17T00:19:27;33.35;;;13.60;;
74309;SDS011;62722;51.142;17.052;2023-02-17T00:21:55;30.70;;;13.43;;
74309;SDS011;62722;51.142;17.052;2023-02-17T00:24:25;32.15;;;12.77;;
74309;SDS011;62722;51.142;17.052;2023-02-17T00:26:53;39.15;;;14.10;;
74309;SDS011;62722;51.142;17.052;2023-02-17T00:29:21;35.58;;;13.73;;
74309;SDS011;62722;51.142;17.052;2023-02-17T00:31:52;35.67;;;13.32;;
74309;SDS011;62722;51.142;17.052;2023-02-17T00:34:19;33.85;;;13.43;;
74309;SDS011;62722;51.142;17.052;2023-02-17T00:36:47;32.38;;;14.00;;
74309;SDS011;62722;51.142;17.052;2023-02-17T00:39:15;31.52;;;13.00;;
74309;SDS011;62722;51.142;17.052;2023-02-17T00:41:42;31.80;;;13.65;;
74309;SDS011;62722;51.142;17.052;2023-02-17T00:44:12;30.02;;;12.38;;
74309;SDS011;62722;51.142;17.052;2023-02-17T00:46:42;34.55;;;14.10;;
74309;SDS011;62722;51.142;17.052;2023-02-17T00:49:14;32.63;;;12.55;;
74309;SDS011;62722;51.142;17.052;2023-02-17T00:51:43;35.30;;;14.60;;
74309;SDS011;62722;51.142;17.052;2023-02-17T00:54:11;32.08;;;13.55;;
74309;SDS011;62722;51.142;17.052;2023-02-17T00:56:39;30.80;;;13.25;;
74309;SDS011;62722;51.142;17.052;2023-02-17T00:59:06;36.90;;;14.15;;
74309;SDS011;62722;51.142;17.052;2023-02-17T01:01:34;36.60;;;12.73;;
74309;SDS011;62722;51.142;17.052;2023-02-17T01:04:02;31.25;;;12.10;;
74309;SDS011;62722;51.142;17.052;2023-02-17T01:06:32;29.15;;;12.38;;
74309;SDS011;62722;51.142;17.052;2023-02-17T01:09:02;31.60;;;13.55;;
74309;SDS011;62722;51.142;17.052;2023-02-17T01:11:30;34.67;;;13.13;;
74309;SDS011;62722;51.142;17.052;2023-02-17T01:14:00;30.13;;;11.93;;
74309;SDS011;62722;51.142;17.052;2023-02-17T01:16:32;31.52;;;12.57;;
74309;SDS011;62722;51.142;17.052;2023-02-17T01:19:01;36.20;;;13.52;;
74309;SDS011;62722;51.142;17.052;2023-02-17T01:21:28;29.67;;;13.05;;
74309;SDS011;62722;51.142;17.052;2023-02-17T01:23:59;29.27;;;12.68;;
74309;SDS011;62722;51.142;17.052;2023-02-17T01:26:28;29.48;;;11.27;;
74309;SDS011;62722;51.142;17.052;2023-02-17T01:28:57;31.23;;;12.10;;
74309;SDS011;62722;51.142;17.052;2023-02-17T01:31:24;28.55;;;12.55;;
74309;SDS011;62722;51.142;17.052;2023-02-17T01:33:53;28.38;;;11.18;;
74309;SDS011;62722;51.142;17.052;2023-02-17T01:36:23;28.00;;;12.13;;
74309;SDS011;62722;51.142;17.052;2023-02-17T01:38:52;34.95;;;14.50;;
74309;SDS011;62722;51.142;17.052;2023-02-17T01:41:21;33.38;;;12.38;;
74309;SDS011;62722;51.142;17.052;2023-02-17T01:44:04;33.10;;;13.27;;
74309;SDS011;62722;51.142;17.052;2023-02-17T01:46:34;30.73;;;13.55;;
74309;SDS011;62722;51.142;17.052;2023-02-17T01:49:03;27.08;;;12.38;;
74309;SDS011;62722;51.142;17.052;2023-02-17T01:51:36;30.20;;;12.50;;
74309;SDS011;62722;51.142;17.052;2023-02-17T01:54:07;30.42;;;12.25;;
74309;SDS011;62722;51.142;17.052;2023-02-17T01:56:38;29.25;;;12.35;;
74309;SDS011;62722;51.142;17.052;2023-02-17T01:59:09;31.30;;;13.13;;
74309;SDS011;62722;51.142;17.052;2023-02-17T02:01:42;32.47;;;14.18;;
74309;SDS011;62722;51.142;17.052;2023-02-17T02:04:10;30.63;;;13.43;;
74309;SDS011;62722;51.142;17.052;2023-02-17T02:06:40;31.98;;;13.90;;
74309;SDS011;62722;51.142;17.052;2023-02-17T02:09:14;39.03;;;13.32;;
74309;SDS011;62722;51.142;17.052;2023-02-17T02:11:46;29.90;;;12.27;;
74309;SDS011;62722;51.142;17.052;2023-02-17T02:14:15;31.27;;;14.05;;
74309;SDS011;62722;51.142;17.052;2023-02-17T02:16:45;33.67;;;13.85;;
74309;SDS011;62722;51.142;17.052;2023-02-17T02:19:26;30.33;;;13.82;;
74309;SDS011;62722;51.142;17.052;2023-02-17T02:25:15;35.97;;;14.77;;
74309;SDS011;62722;51.142;17.052;2023-02-17T02:27:59;36.95;;;14.38;;
74309;SDS011;62722;51.142;17.052;2023-02-17T02:33:39;31.40;;;14.40;;
74309;SDS011;62722;51.142;17.052;2023-02-17T02:36:10;46.35;;;19.73;;
74309;SDS011;62722;51.142;17.052;2023-02-17T02:38:41;39.95;;;18.00;;
74309;SDS011;62722;51.142;17.052;2023-02-17T02:41:14;38.58;;;15.65;;
74309;SDS011;62722;51.142;17.052;2023-02-17T02:43:44;38.13;;;14.75;;
74309;SDS011;62722;51.142;17.052;2023-02-17T02:46:14;31.90;;;14.05;;
74309;SDS011;62722;51.142;17.052;2023-02-17T02:48:43;33.00;;;13.48;;
74309;SDS011;62722;51.142;17.052;2023-02-17T02:51:23;29.58;;;13.93;;
74309;SDS011;62722;51.142;17.052;2023-02-17T02:54:09;31.60;;;14.02;;
74309;SDS011;62722;51.142;17.052;2023-02-17T02:56:49;29.70;;;13.93;;
74309;SDS011;62722;51.142;17.052;2023-02-17T02:59:38;28.58;;;13.40;;
74309;SDS011;62722;51.142;17.052;2023-02-17T03:02:16;30.98;;;13.75;;
74309;SDS011;62722;51.142;17.052;2023-02-17T03:04:50;33.63;;;13.10;;
74309;SDS011;62722;51.142;17.052;2023-02-17T03:07:25;35.22;;;13.05;;
74309;SDS011;62722;51.142;17.052;2023-02-17T03:09:56;32.53;;;13.40;;
74309;SDS011;62722;51.142;17.052;2023-02-17T03:12:25;30.60;;;13.32;;
74309;SDS011;62722;51.142;17.052;2023-02-17T03:14:54;27.30;;;12.88;;
74309;SDS011;62722;51.142;17.052;2023-02-17T03:17:25;32.08;;;13.27;;
74309;SDS011;62722;51.142;17.052;2023-02-17T03:19:57;35.35;;;13.73;;
74309;SDS011;62722;51.142;17.052;2023-02-17T03:22:27;33.70;;;14.40;;
74309;SDS011;62722;51.142;17.052;2023-02-17T03:24:58;32.63;;;12.45;;
74309;SDS011;62722;51.142;17.052;2023-02-17T03:27:26;30.20;;;12.90;;
74309;SDS011;62722;51.142;17.052;2023-02-17T03:29:53;30.17;;;12.90;;
74309;SDS011;62722;51.142;17.052;2023-02-17T03:32:20;25.90;;;11.73;;
74309;SDS011;62722;51.142;17.052;2023-02-17T03:34:48;26.77;;;12.02;;
74309;SDS011;62722;51.142;17.052;2023-02-17T03:37:16;30.02;;;12.82;;
74309;SDS011;62722;51.142;17.052;2023-02-17T03:39:44;29.50;;;13.55;;
74309;SDS011;62722;51.142;17.052;2023-02-17T03:42:11;28.20;;;13.18;;
74309;SDS011;62722;51.142;17.052;2023-02-17T03:44:38;35.45;;;13.50;;
74309;SDS011;62722;51.142;17.052;2023-02-17T03:47:06;31.48;;;13.35;;
74309;SDS011;62722;51.142;17.052;2023-02-17T03:49:33;32.47;;;13.35;;
74309;SDS011;62722;51.142;17.052;2023-02-17T03:52:01;29.52;;;13.20;;
74309;SDS011;62722;51.142;17.052;2023-02-17T03:54:29;27.50;;;12.68;;
74309;SDS011;62722;51.142;17.052;2023-02-17T03:56:57;28.50;;;12.80;;
74309;SDS011;62722;51.142;17.052;2023-02-17T03:59:25;25.65;;;12.02;;
74309;SDS011;62722;51.142;17.052;2023-02-17T04:01:53;27.55;;;12.48;;
74309;SDS011;62722;51.142;17.052;2023-02-17T04:04:20;31.63;;;13.18;;
74309;SDS011;62722;51.142;17.052;2023-02-17T04:06:48;27.00;;;13.23;;
74309;SDS011;62722;51.142;17.052;2023-02-17T04:09:15;26.65;;;12.48;;
74309;SDS011;62722;51.142;17.052;2023-02-17T04:11:44;30.15;;;12.30;;
74309;SDS011;62722;51.142;17.052;2023-02-17T04:14:11;27.27;;;12.18;;
74309;SDS011;62722;51.142;17.052;2023-02-17T04:16:38;26.10;;;11.88;;
74309;SDS011;62722;51.142;17.052;2023-02-17T04:19:06;30.98;;;12.85;;
74309;SDS011;62722;51.142;17.052;2023-02-17T04:21:34;27.38;;;12.57;;
74309;SDS011;62722;51.142;17.052;2023-02-17T04:24:01;31.20;;;13.48;;
74309;SDS011;62722;51.142;17.052;2023-02-17T04:26:29;25.00;;;11.35;;
74309;SDS011;62722;51.142;17.052;2023-02-17T04:28:58;27.15;;;11.73;;
74309;SDS011;62722;51.142;17.052;2023-02-17T04:31:25;26.77;;;11.73;;
74309;SDS011;62722;51.142;17.052;2023-02-17T04:33:52;29.05;;;12.10;;
74309;SDS011;62722;51.142;17.052;2023-02-17T04:36:20;30.00;;;12.30;;
74309;SDS011;62722;51.142;17.052;2023-02-17T04:38:48;25.42;;;11.80;;
74309;SDS011;62722;51.142;17.052;2023-02-17T04:41:15;27.15;;;12.05;;
74309;SDS011;62722;51.142;17.052;2023-02-17T04:43:42;30.40;;;11.80;;
74309;SDS011;62722;51.142;17.052;2023-02-17T04:46:11;27.95;;;12.27;;
74309;SDS011;62722;51.142;17.052;2023-02-17T04:48:39;27.65;;;11.65;;
74309;SDS011;62722;51.142;17.052;2023-02-17T04:51:06;26.13;;;11.55;;
74309;SDS011;62722;51.142;17.052;2023-02-17T04:53:33;25.77;;;12.32;;
74309;SDS011;62722;51.142;17.052;2023-02-17T04:56:01;29.13;;;11.85;;
74309;SDS011;62722;51.142;17.052;2023-02-17T04:58:28;30.88;;;12.38;;
74309;SDS011;62722;51.142;17.052;2023-02-17T05:00:57;29.60;;;11.55;;
74309;SDS011;62722;51.142;17.052;2023-02-17T05:03:26;26.90;;;12.00;;
74309;SDS011;62722;51.142;17.052;2023-02-17T05:05:54;28.65;;;13.07;;
74309;SDS011;62722;51.142;17.052;2023-02-17T05:08:21;27.65;;;12.85;;
74309;SDS011;62722;51.142;17.052;2023-02-17T05:10:49;32.97;;;12.98;;
74309;SDS011;62722;51.142;17.052;2023-02-17T05:13:16;27.75;;;12.90;;
74309;SDS011;62722;51.142;17.052;2023-02-17T05:15:44;27.35;;;11.73;;
74309;SDS011;62722;51.142;17.052;2023-02-17T05:18:12;31.90;;;12.95;;
74309;SDS011;62722;51.142;17.052;2023-02-17T05:20:41;28.38;;;12.48;;
74309;SDS011;62722;51.142;17.052;2023-02-17T05:23:08;31.77;;;12.07;;
74309;SDS011;62722;51.142;17.052;2023-02-17T05:25:36;26.35;;;11.90;;
74309;SDS011;62722;51.142;17.052;2023-02-17T05:28:05;30.98;;;12.48;;
74309;SDS011;62722;51.142;17.052;2023-02-17T05:30:32;29.30;;;12.55;;
74309;SDS011;62722;51.142;17.052;2023-02-17T05:33:00;31.33;;;13.32;;
74309;SDS011;62722;51.142;17.052;2023-02-17T05:35:27;31.85;;;11.90;;
74309;SDS011;62722;51.142;17.052;2023-02-17T05:37:56;29.40;;;12.75;;
74309;SDS011;62722;51.142;17.052;2023-02-17T05:40:23;28.13;;;12.07;;
74309;SDS011;62722;51.142;17.052;2023-02-17T05:42:50;27.42;;;13.57;;
74309;SDS011;62722;51.142;17.052;2023-02-17T05:45:18;31.55;;;14.35;;
74309;SDS011;62722;51.142;17.052;2023-02-17T05:47:45;25.52;;;11.60;;
74309;SDS011;62722;51.142;17.052;2023-02-17T05:50:13;29.60;;;12.82;;
74309;SDS011;62722;51.142;17.052;2023-02-17T05:52:40;30.75;;;12.35;;
74309;SDS011;62722;51.142;17.052;2023-02-17T05:55:09;31.95;;;12.82;;
74309;SDS011;62722;51.142;17.052;2023-02-17T05:57:36;31.58;;;12.25;;
74309;SDS011;62722;51.142;17.052;2023-02-17T06:00:04;29.58;;;12.65;;
74309;SDS011;62722;51.142;17.052;2023-02-17T06:02:32;33.25;;;13.70;;
74309;SDS011;62722;51.142;17.052;2023-02-17T06:05:00;27.77;;;12.65;;
74309;SDS011;62722;51.142;17.052;2023-02-17T06:07:27;32.40;;;12.93;;
74309;SDS011;62722;51.142;17.052;2023-02-17T06:09:54;27.63;;;13.32;;
74309;SDS011;62722;51.142;17.052;2023-02-17T06:12:23;28.13;;;13.32;;
74309;SDS011;62722;51.142;17.052;2023-02-17T06:14:50;28.73;;;12.82;;
74309;SDS011;62722;51.142;17.052;2023-02-17T06:17:17;31.30;;;13.80;;
74309;SDS011;62722;51.142;17.052;2023-02-17T06:19:45;31.23;;;13.43;;
74309;SDS011;62722;51.142;17.052;2023-02-17T06:22:12;33.63;;;13.45;;
74309;SDS011;62722;51.142;17.052;2023-02-17T06:24:39;29.38;;;13.63;;
74309;SDS011;62722;51.142;17.052;2023-02-17T06:27:07;31.52;;;13.82;;
74309;SDS011;62722;51.142;17.052;2023-02-17T06:29:35;31.38;;;13.43;;
74309;SDS011;62722;51.142;17.052;2023-02-17T06:32:03;32.28;;;13.35;;
74309;SDS011;62722;51.142;17.052;2023-02-17T06:34:30;31.02;;;14.07;;
74309;SDS011;62722;51.142;17.052;2023-02-17T06:36:58;33.78;;;14.63;;
74309;SDS011;62722;51.142;17.052;2023-02-17T06:39:25;29.50;;;12.75;;
74309;SDS011;62722;51.142;17.052;2023-02-17T06:41:52;32.30;;;14.45;;
74309;SDS011;62722;51.142;17.052;2023-02-17T06:44:20;33.78;;;14.75;;
74309;SDS011;62722;51.142;17.052;2023-02-17T06:46:48;34.05;;;15.38;;
74309;SDS011;62722;51.142;17.052;2023-02-17T06:49:16;34.50;;;14.00;;
74309;SDS011;62722;51.142;17.052;2023-02-17T06:51:43;34.42;;;15.25;;
74309;SDS011;62722;51.142;17.052;2023-02-17T06:54:10;34.88;;;15.45;;
74309;SDS011;62722;51.142;17.052;2023-02-17T06:56:38;32.03;;;14.55;;
74309;SDS011;62722;51.142;17.052;2023-02-17T06:59:05;33.78;;;15.07;;
74309;SDS011;62722;51.142;17.052;2023-02-17T07:01:32;31.42;;;13.23;;
74309;SDS011;62722;51.142;17.052;2023-02-17T07:04:01;31.45;;;13.35;;
74309;SDS011;62722;51.142;17.052;2023-02-17T07:06:28;31.85;;;15.00;;
74309;SDS011;62722;51.142;17.052;2023-02-17T07:08:56;36.65;;;16.30;;
74309;SDS011;62722;51.142;17.052;2023-02-17T07:11:23;34.17;;;15.35;;
74309;SDS011;62722;51.142;17.052;2023-02-17T07:13:51;30.35;;;14.13;;
74309;SDS011;62722;51.142;17.052;2023-02-17T07:16:19;31.70;;;14.40;;
74309;SDS011;62722;51.142;17.052;2023-02-17T07:18:46;36.08;;;15.77;;
74309;SDS011;62722;51.142;17.052;2023-02-17T07:21:15;31.65;;;15.23;;
74309;SDS011;62722;51.142;17.052;2023-02-17T07:23:43;33.05;;;14.30;;
74309;SDS011;62722;51.142;17.052;2023-02-17T07:26:10;35.53;;;14.55;;
74309;SDS011;62722;51.142;17.052;2023-02-17T07:28:38;34.08;;;14.93;;
74309;SDS011;62722;51.142;17.052;2023-02-17T07:31:06;35.75;;;14.40;;
74309;SDS011;62722;51.142;17.052;2023-02-17T07:33:34;34.63;;;15.48;;
74309;SDS011;62722;51.142;17.052;2023-02-17T07:36:04;32.22;;;14.60;;
74309;SDS011;62722;51.142;17.052;2023-02-17T07:38:34;33.30;;;13.95;;
74309;SDS011;62722;51.142;17.052;2023-02-17T07:41:04;35.65;;;15.13;;
74309;SDS011;62722;51.142;17.052;2023-02-17T07:43:33;33.55;;;14.40;;
74309;SDS011;62722;51.142;17.052;2023-02-17T07:46:00;38.58;;;15.93;;
74309;SDS011;62722;51.142;17.052;2023-02-17T07:48:28;30.98;;;13.70;;
74309;SDS011;62722;51.142;17.052;2023-02-17T07:50:56;34.88;;;15.25;;
74309;SDS011;62722;51.142;17.052;2023-02-17T07:53:23;30.40;;;13.18;;
74309;SDS011;62722;51.142;17.052;2023-02-17T07:55:53;32.00;;;13.75;;
74309;SDS011;62722;51.142;17.052;2023-02-17T07:58:21;32.42;;;14.48;;
74309;SDS011;62722;51.142;17.052;2023-02-17T08:00:48;32.05;;;14.30;;
74309;SDS011;62722;51.142;17.052;2023-02-17T08:03:15;34.58;;;15.27;;
74309;SDS011;62722;51.142;17.052;2023-02-17T08:05:43;33.50;;;15.40;;
74309;SDS011;62722;51.142;17.052;2023-02-17T08:08:10;30.25;;;13.75;;
74309;SDS011;62722;51.142;17.052;2023-02-17T08:11:00;30.02;;;14.27;;
74309;SDS011;62722;51.142;17.052;2023-02-17T08:13:48;26.73;;;12.90;;
74309;SDS011;62722;51.142;17.052;2023-02-17T08:16:15;29.38;;;14.02;;
74309;SDS011;62722;51.142;17.052;2023-02-17T08:18:42;30.98;;;13.60;;
74309;SDS011;62722;51.142;17.052;2023-02-17T08:21:09;28.75;;;13.65;;
74309;SDS011;62722;51.142;17.052;2023-02-17T08:23:37;35.00;;;15.07;;
74309;SDS011;62722;51.142;17.052;2023-02-17T08:26:05;31.98;;;14.20;;
74309;SDS011;62722;51.142;17.052;2023-02-17T08:28:33;31.40;;;14.13;;
74309;SDS011;62722;51.142;17.052;2023-02-17T08:31:00;33.58;;;15.80;;
74309;SDS011;62722;51.142;17.052;2023-02-17T08:33:28;33.35;;;14.50;;
74309;SDS011;62722;51.142;17.052;2023-02-17T08:35:55;32.53;;;14.27;;
74309;SDS011;62722;51.142;17.052;2023-02-17T08:38:23;33.90;;;15.02;;
74309;SDS011;62722;51.142;17.052;2023-02-17T08:40:51;31.05;;;14.13;;
74309;SDS011;62722;51.142;17.052;2023-02-17T08:43:20;27.67;;;14.27;;
74309;SDS011;62722;51.142;17.052;2023-02-17T08:45:47;31.88;;;14.82;;
74309;SDS011;62722;51.142;17.052;2023-02-17T08:48:15;32.30;;;14.73;;
74309;SDS011;62722;51.142;17.052;2023-02-17T08:50:42;30.95;;;13.55;;
74309;SDS011;62722;51.142;17.052;2023-02-17T08:53:12;29.02;;;12.38;;
74309;SDS011;62722;51.142;17.052;2023-02-17T08:55:40;27.10;;;12.88;;
74309;SDS011;62722;51.142;17.052;2023-02-17T08:58:07;30.05;;;13.98;;
74309;SDS011;62722;51.142;17.052;2023-02-17T09:00:36;29.42;;;13.90;;
74309;SDS011;62722;51.142;17.052;2023-02-17T09:03:03;28.58;;;13.13;;
74309;SDS011;62722;51.142;17.052;2023-02-17T09:05:32;32.78;;;14.07;;
74309;SDS011;62722;51.142;17.052;2023-02-17T09:08:00;30.58;;;13.60;;
74309;SDS011;62722;51.142;17.052;2023-02-17T09:10:27;27.02;;;13.20;;
74309;SDS011;62722;51.142;17.052;2023-02-17T09:12:55;26.45;;;13.50;;
74309;SDS011;62722;51.142;17.052;2023-02-17T09:15:22;32.08;;;13.77;;
74309;SDS011;62722;51.142;17.052;2023-02-17T09:17:51;31.95;;;14.98;;
74309;SDS011;62722;51.142;17.052;2023-02-17T09:20:19;39.72;;;16.40;;
74309;SDS011;62722;51.142;17.052;2023-02-17T09:22:47;38.15;;;16.42;;
74309;SDS011;62722;51.142;17.052;2023-02-17T09:25:14;33.85;;;14.48;;
74309;SDS011;62722;51.142;17.052;2023-02-17T09:27:42;35.03;;;14.63;;
74309;SDS011;62722;51.142;17.052;2023-02-17T09:30:09;32.58;;;15.75;;
74309;SDS011;62722;51.142;17.052;2023-02-17T09:32:39;32.45;;;13.85;;
74309;SDS011;62722;51.142;17.052;2023-02-17T09:35:09;33.72;;;15.00;;
74309;SDS011;62722;51.142;17.052;2023-02-17T09:37:37;33.50;;;14.95;;
74309;SDS011;62722;51.142;17.052;2023-02-17T09:40:05;31.65;;;14.27;;
74309;SDS011;62722;51.142;17.052;2023-02-17T09:42:35;34.28;;;15.98;;
74309;SDS011;62722;51.142;17.052;2023-02-17T09:45:06;33.45;;;14.98;;
74309;SDS011;62722;51.142;17.052;2023-02-17T09:50:11;27.17;;;12.95;;
74309;SDS011;62722;51.142;17.052;2023-02-17T09:52:43;34.95;;;14.55;;
74309;SDS011;62722;51.142;17.052;2023-02-17T09:55:17;28.80;;;13.60;;
74309;SDS011;62722;51.142;17.052;2023-02-17T09:57:50;28.52;;;14.68;;
74309;SDS011;62722;51.142;17.052;2023-02-17T10:00:24;26.67;;;12.85;;
74309;SDS011;62722;51.142;17.052;2023-02-17T10:02:56;29.25;;;11.70;;
74309;SDS011;62722;51.142;17.052;2023-02-17T10:05:35;28.52;;;13.25;;
74309;SDS011;62722;51.142;17.052;2023-02-17T10:08:07;28.33;;;13.18;;
74309;SDS011;62722;51.142;17.052;2023-02-17T10:10:39;28.52;;;12.45;;
74309;SDS011;62722;51.142;17.052;2023-02-17T10:13:12;30.55;;;12.23;;
74309;SDS011;62722;51.142;17.052;2023-02-17T10:15:44;27.00;;;11.85;;
74309;SDS011;62722;51.142;17.052;2023-02-17T10:18:16;29.15;;;12.30;;
74309;SDS011;62722;51.142;17.052;2023-02-17T10:20:49;25.73;;;12.88;;
74309;SDS011;62722;51.142;17.052;2023-02-17T10:23:24;24.02;;;11.60;;
74309;SDS011;62722;51.142;17.052;2023-02-17T10:28:49;27.15;;;13.23;;
74309;SDS011;62722;51.142;17.052;2023-02-17T10:31:20;27.33;;;12.85;;
74309;SDS011;62722;51.142;17.052;2023-02-17T10:33:57;26.45;;;12.88;;
74309;SDS011;62722;51.142;17.052;2023-02-17T10:36:31;25.08;;;10.98;;
74309;SDS011;62722;51.142;17.052;2023-02-17T10:39:12;24.88;;;12.23;;
74309;SDS011;62722;51.142;17.052;2023-02-17T10:44:11;20.45;;;10.32;;
74309;SDS011;62722;51.142;17.052;2023-02-17T10:46:42;23.00;;;10.82;;
74309;SDS011;62722;51.142;17.052;2023-02-17T10:49:13;23.02;;;9.48;;
74309;SDS011;62722;51.142;17.052;2023-02-17T10:51:48;21.30;;;9.90;;
74309;SDS011;62722;51.142;17.052;2023-02-17T10:54:17;23.15;;;11.73;;
74309;SDS011;62722;51.142;17.052;2023-02-17T10:56:54;21.83;;;10.30;;
74309;SDS011;62722;51.142;17.052;2023-02-17T10:59:25;21.08;;;10.32;;
74309;SDS011;62722;51.142;17.052;2023-02-17T11:01:56;21.08;;;10.27;;
74309;SDS011;62722;51.142;17.052;2023-02-17T11:04:27;22.77;;;10.23;;
74309;SDS011;62722;51.142;17.052;2023-02-17T11:07:08;20.77;;;10.40;;
74309;SDS011;62722;51.142;17.052;2023-02-17T11:09:39;17.92;;;9.07;;
74309;SDS011;62722;51.142;17.052;2023-02-17T11:12:12;22.30;;;10.38;;
74309;SDS011;62722;51.142;17.052;2023-02-17T11:14:43;21.70;;;9.18;;
74309;SDS011;62722;51.142;17.052;2023-02-17T11:17:13;18.90;;;9.48;;
74309;SDS011;62722;51.142;17.052;2023-02-17T11:19:52;19.17;;;9.60;;
74309;SDS011;62722;51.142;17.052;2023-02-17T11:22:33;17.75;;;9.75;;
74309;SDS011;62722;51.142;17.052;2023-02-17T11:25:07;19.23;;;9.63;;
74309;SDS011;62722;51.142;17.052;2023-02-17T11:27:51;18.17;;;9.88;;
74309;SDS011;62722;51.142;17.052;2023-02-17T11:32:47;17.15;;;9.27;;
74309;SDS011;62722;51.142;17.052;2023-02-17T11:35:22;20.85;;;9.98;;
74309;SDS011;62722;51.142;17.052;2023-02-17T11:37:59;21.05;;;9.57;;
74309;SDS011;62722;51.142;17.052;2023-02-17T11:40:28;17.98;;;9.70;;
74309;SDS011;62722;51.142;17.052;2023-02-17T11:42:57;18.42;;;9.90;;
74309;SDS011;62722;51.142;17.052;2023-02-17T11:45:27;20.92;;;10.45;;
74309;SDS011;62722;51.142;17.052;2023-02-17T11:50:57;18.85;;;9.30;;
74309;SDS011;62722;51.142;17.052;2023-02-17T11:53:36;19.80;;;10.07;;
74309;SDS011;62722;51.142;17.052;2023-02-17T11:56:13;17.08;;;8.43;;
74309;SDS011;62722;51.142;17.052;2023-02-17T11:58:53;17.08;;;8.60;;
74309;SDS011;62722;51.142;17.052;2023-02-17T12:01:44;20.67;;;11.18;;
74309;SDS011;62722;51.142;17.052;2023-02-17T12:04:24;14.57;;;7.53;;
74309;SDS011;62722;51.142;17.052;2023-02-17T12:07:02;17.73;;;7.95;;
74309;SDS011;62722;51.142;17.052;2023-02-17T12:09:52;15.60;;;7.63;;
74309;SDS011;62722;51.142;17.052;2023-02-17T12:12:30;12.52;;;7.38;;
74309;SDS011;62722;51.142;17.052;2023-02-17T12:15:14;13.82;;;7.75;;
74309;SDS011;62722;51.142;17.052;2023-02-17T12:17:54;12.57;;;6.28;;
74309;SDS011;62722;51.142;17.052;2023-02-17T12:20:40;14.05;;;7.03;;
74309;SDS011;62722;51.142;17.052;2023-02-17T12:23:27;13.27;;;6.45;;
74309;SDS011;62722;51.142;17.052;2023-02-17T12:26:13;12.07;;;6.13;;
74309;SDS011;62722;51.142;17.052;2023-02-17T12:28:58;10.93;;;5.60;;
74309;SDS011;62722;51.142;17.052;2023-02-17T12:31:40;12.70;;;6.28;;
74309;SDS011;62722;51.142;17.052;2023-02-17T12:34:23;10.82;;;6.30;;
74309;SDS011;62722;51.142;17.052;2023-02-17T12:36:55;9.52;;;5.78;;
74309;SDS011;62722;51.142;17.052;2023-02-17T12:39:25;11.20;;;5.88;;
74309;SDS011;62722;51.142;17.052;2023-02-17T12:42:00;14.30;;;7.10;;
74309;SDS011;62722;51.142;17.052;2023-02-17T12:44:31;14.82;;;8.07;;
74309;SDS011;62722;51.142;17.052;2023-02-17T12:47:03;13.93;;;7.22;;
74309;SDS011;62722;51.142;17.052;2023-02-17T12:49:39;15.48;;;7.60;;
74309;SDS011;62722;51.142;17.052;2023-02-17T12:52:12;13.57;;;7.13;;
74309;SDS011;62722;51.142;17.052;2023-02-17T12:54:45;16.80;;;8.60;;
74309;SDS011;62722;51.142;17.052;2023-02-17T12:57:19;15.60;;;8.35;;
74309;SDS011;62722;51.142;17.052;2023-02-17T12:59:51;23.20;;;10.32;;
74309;SDS011;62722;51.142;17.052;2023-02-17T13:02:19;16.10;;;9.10;;
74309;SDS011;62722;51.142;17.052;2023-02-17T13:04:48;17.42;;;9.60;;
74309;SDS011;62722;51.142;17.052;2023-02-17T13:07:18;19.02;;;9.75;;
74309;SDS011;62722;51.142;17.052;2023-02-17T13:09:54;17.02;;;9.98;;
74309;SDS011;62722;51.142;17.052;2023-02-17T13:12:31;13.95;;;7.22;;
74309;SDS011;62722;51.142;17.052;2023-02-17T13:15:05;12.77;;;7.30;;
74309;SDS011;62722;51.142;17.052;2023-02-17T13:17:51;14.68;;;7.68;;
74309;SDS011;62722;51.142;17.052;2023-02-17T13:20:25;15.18;;;8.55;;
74309;SDS011;62722;51.142;17.052;2023-02-17T13:23:06;16.63;;;8.88;;
74309;SDS011;62722;51.142;17.052;2023-02-17T13:25:38;15.02;;;8.30;;
74309;SDS011;62722;51.142;17.052;2023-02-17T13:28:17;20.42;;;11.38;;
74309;SDS011;62722;51.142;17.052;2023-02-17T13:31:07;19.77;;;10.55;;
74309;SDS011;62722;51.142;17.052;2023-02-17T13:33:40;14.93;;;9.27;;
74309;SDS011;62722;51.142;17.052;2023-02-17T13:36:13;16.95;;;8.88;;
74309;SDS011;62722;51.142;17.052;2023-02-17T13:38:52;19.75;;;9.05;;
74309;SDS011;62722;51.142;17.052;2023-02-17T13:41:26;13.90;;;8.65;;
74309;SDS011;62722;51.142;17.052;2023-02-17T13:43:56;20.45;;;9.75;;
74309;SDS011;62722;51.142;17.052;2023-02-17T13:46:24;22.98;;;11.10;;
74309;SDS011;62722;51.142;17.052;2023-02-17T13:49:00;23.27;;;11.52;;
74309;SDS011;62722;51.142;17.052;2023-02-17T13:51:29;26.77;;;13.00;;
74309;SDS011;62722;51.142;17.052;2023-02-17T13:54:03;26.67;;;13.90;;
74309;SDS011;62722;51.142;17.052;2023-02-17T13:56:32;31.55;;;13.68;;
74309;SDS011;62722;51.142;17.052;2023-02-17T13:59:07;24.38;;;12.88;;
74309;SDS011;62722;51.142;17.052;2023-02-17T14:01:37;26.45;;;13.48;;
74309;SDS011;62722;51.142;17.052;2023-02-17T14:06:46;24.83;;;11.77;;
74309;SDS011;62722;51.142;17.052;2023-02-17T14:09:21;27.77;;;14.05;;
74309;SDS011;62722;51.142;17.052;2023-02-17T14:11:52;24.70;;;12.60;;
74309;SDS011;62722;51.142;17.052;2023-02-17T14:14:22;25.88;;;13.30;;
74309;SDS011;62722;51.142;17.052;2023-02-17T14:16:55;26.67;;;14.68;;
74309;SDS011;62722;51.142;17.052;2023-02-17T14:19:25;25.42;;;13.35;;
74309;SDS011;62722;51.142;17.052;2023-02-17T14:21:56;25.55;;;13.40;;
74309;SDS011;62722;51.142;17.052;2023-02-17T14:24:26;24.33;;;12.38;;
74309;SDS011;62722;51.142;17.052;2023-02-17T14:26:57;21.52;;;11.82;;
74309;SDS011;62722;51.142;17.052;2023-02-17T14:29:37;20.58;;;11.13;;
74309;SDS011;62722;51.142;17.052;2023-02-17T14:34:53;21.38;;;10.45;;
74309;SDS011;62722;51.142;17.052;2023-02-17T14:37:22;21.13;;;11.75;;
74309;SDS011;62722;51.142;17.052;2023-02-17T14:39:50;23.00;;;11.70;;
74309;SDS011;62722;51.142;17.052;2023-02-17T14:42:18;24.65;;;11.13;;
74309;SDS011;62722;51.142;17.052;2023-02-17T14:44:47;15.73;;;9.23;;
74309;SDS011;62722;51.142;17.052;2023-02-17T14:47:14;19.27;;;10.63;;
74309;SDS011;62722;51.142;17.052;2023-02-17T14:49:41;20.63;;;10.82;;
74309;SDS011;62722;51.142;17.052;2023-02-17T14:52:14;26.75;;;12.82;;
74309;SDS011;62722;51.142;17.052;2023-02-17T14:54:44;21.75;;;11.73;;
74309;SDS011;62722;51.142;17.052;2023-02-17T14:57:13;23.33;;;12.35;;